Time;durP1;ratioP1;P1;durP2;ratioP2;P2;SDS_P1;SDS_P2;PMS_P1;PMS_P2;Temp;Humidity;BMP_temperature;BMP_pressure;BME280_temperature;BME280_humidity;BME280_pressure;Samples;Min_cycle;Max_cycle;Signal;HPM_P1;HPM_P2
2022/05/30 00:01:35;;;;;;;9.45;1.40;;;;;;;12.91;56.23;99484.13;5052286;28;20049;-62
2022/05/30 00:04:02;;;;;;;8.27;2.20;;;;;;;12.89;56.22;99481.59;5052234;28;20094;-61
2022/05/30 00:06:29;;;;;;;6.78;1.75;;;;;;;12.89;56.23;99483.38;5052214;28;20061;-60
2022/05/30 00:08:56;;;;;;;5.50;1.83;;;;;;;12.87;56.02;99486.13;5052363;28;20057;-62
2022/05/30 00:11:24;;;;;;;6.65;1.70;;;;;;;12.86;55.94;99481.81;5050926;28;20056;-60
2022/05/30 00:13:50;;;;;;;10.07;1.80;;;;;;;12.83;55.85;99476.75;5052390;28;20503;-62
2022/05/30 00:16:20;;;;;;;9.50;2.38;;;;;;;12.80;56.10;99476.97;5051985;28;20049;-61
2022/05/30 00:18:47;;;;;;;6.45;1.73;;;;;;;12.77;55.94;99477.19;5050752;28;20060;-61
2022/05/30 00:21:21;;;;;;;5.50;1.45;;;;;;;12.72;56.62;99466.97;5051599;28;20057;-61
2022/05/30 00:23:49;;;;;;;6.75;1.52;;;;;;;12.70;56.00;99479.41;5052100;28;20068;-62
2022/05/30 00:26:16;;;;;;;7.18;1.80;;;;;;;12.68;56.34;99475.19;5051986;28;20092;-61
2022/05/30 00:28:43;;;;;;;4.60;1.85;;;;;;;12.64;56.36;99472.75;5050791;28;20507;-61
2022/05/30 00:31:12;;;;;;;4.45;1.70;;;;;;;12.61;56.37;99475.63;5051673;28;20048;-65
2022/05/30 00:33:41;;;;;;;7.75;1.80;;;;;;;12.59;56.59;99479.31;5050389;28;20041;-60
2022/05/30 00:36:08;;;;;;;7.05;1.33;;;;;;;12.56;56.42;99464.53;5050628;28;20485;-60
2022/05/30 00:38:35;;;;;;;6.93;1.80;;;;;;;12.54;56.16;99479.66;5050578;28;20456;-60
2022/05/30 00:41:02;;;;;;;6.68;1.85;;;;;;;12.49;56.35;99473.84;5051713;28;20060;-62
2022/05/30 00:43:35;;;;;;;7.85;1.70;;;;;;;12.43;56.86;99480.41;5050262;28;20056;-62
2022/05/30 00:46:06;;;;;;;;;;;;;;;12.42;56.52;99477.84;5051049;28;20110;-64
2022/05/30 00:48:38;;;;;;;4.38;1.30;;;;;;;12.41;56.51;99471.72;5051612;28;19982;-61
2022/05/30 00:51:15;;;;;;;5.57;1.50;;;;;;;12.35;56.55;99475.66;5051460;28;20056;-63
2022/05/30 00:53:44;;;;;;;6.10;1.65;;;;;;;12.32;56.59;99470.59;5050257;28;20413;-62
2022/05/30 00:56:13;;;;;;;9.35;1.98;;;;;;;12.29;56.39;99473.44;5050062;28;20049;-63
2022/05/30 00:58:46;;;;;;;8.77;1.92;;;;;;;12.23;57.06;99468.59;5051180;28;20048;-61
2022/05/30 01:01:13;;;;;;;6.80;1.92;;;;;;;12.21;56.64;99471.31;5050014;28;20068;-63
2022/05/30 01:06:33;;;;;;;5.28;1.38;;;;;;;12.17;56.54;99474.25;5051250;28;20699;-61
2022/05/30 01:09:07;;;;;;;5.53;1.65;;;;;;;12.12;56.95;99480.69;5050428;28;20060;-62
2022/05/30 01:11:57;;;;;;;5.20;1.50;;;;;;;12.07;57.25;99476.72;5051001;28;20056;-62
2022/05/30 01:14:36;;;;;;;4.70;1.73;;;;;;;12.08;56.93;99475.75;5051099;28;20109;-62
2022/05/30 01:17:10;;;;;;;8.73;1.85;;;;;;;12.04;57.24;99469.78;5050825;28;20631;-63
2022/05/30 01:20:18;;;;;;;6.80;1.73;;;;;;;12.02;57.38;99474.34;5049490;28;20489;-61
2022/05/30 01:23:11;;;;;;;8.48;1.83;;;;;;;11.99;57.53;99471.91;5006535;28;20052;-62
2022/05/30 01:26:09;;;;;;;6.68;1.48;;;;;;;11.95;57.64;99470.41;5044131;28;20658;-61
2022/05/30 01:29:24;;;;;;;6.05;1.80;;;;;;;11.94;57.51;99468.72;5049608;28;20508;-62
2022/05/30 01:31:53;;;;;;;9.27;1.75;;;;;;;11.95;57.24;99468.63;5037677;28;20057;-61
2022/05/30 01:34:23;;;;;;;6.07;1.52;;;;;;;11.93;56.97;99464.41;5050492;28;20504;-61
2022/05/30 01:36:49;;;;;;;11.32;2.05;;;;;;;11.92;57.07;99468.00;5050472;28;20053;-62
2022/05/30 01:39:16;;;;;;;10.15;2.47;;;;;;;11.90;57.21;99462.84;5050884;28;20053;-61
2022/05/30 01:41:43;;;;;;;6.63;2.33;;;;;;;11.90;57.09;99459.34;5050160;28;20049;-61
2022/05/30 01:44:10;;;;;;;5.18;1.40;;;;;;;11.89;57.25;99458.47;5050413;28;20057;-63
2022/05/30 01:46:37;;;;;;;4.85;1.90;;;;;;;11.89;57.33;99452.38;5048955;28;20049;-61
2022/05/30 01:49:04;;;;;;;7.45;1.63;;;;;;;11.90;57.16;99451.44;5050519;28;20053;-62
2022/05/30 01:51:32;;;;;;;7.22;1.70;;;;;;;11.91;57.43;99459.25;5050541;28;20489;-62
2022/05/30 01:53:59;;;;;;;6.88;1.50;;;;;;;11.91;57.36;99453.09;5048980;28;20405;-60
2022/05/30 01:56:26;;;;;;;8.95;1.67;;;;;;;11.92;57.49;99454.81;5050415;28;20053;-61
2022/05/30 01:58:52;;;;;;;7.35;1.67;;;;;;;11.92;57.41;99452.19;5050339;28;20049;-62
2022/05/30 02:01:26;;;;;;;5.93;1.83;;;;;;;11.90;57.76;99454.91;5049914;28;20052;-60
2022/05/30 02:03:54;;;;;;;8.80;2.00;;;;;;;11.92;57.25;99458.28;5049200;28;20080;-61
2022/05/30 02:06:23;;;;;;;9.30;1.65;;;;;;;11.91;57.42;99453.97;5050372;28;20127;-63
2022/05/30 02:08:49;;;;;;;6.30;1.42;;;;;;;11.91;57.36;99453.97;5048894;28;20044;-61
2022/05/30 02:11:17;;;;;;;6.65;1.92;;;;;;;11.91;57.37;99453.97;5050252;28;20416;-63
2022/05/30 02:13:44;;;;;;;8.05;1.83;;;;;;;11.90;57.45;99456.69;5048992;28;20060;-61
2022/05/30 02:19:00;;;;;;;8.32;1.92;;;;;;;11.88;57.31;99453.34;5050290;28;20060;-61
2022/05/30 02:21:27;;;;;;;5.35;1.73;;;;;;;11.87;57.49;99444.56;5051219;28;20637;-61
2022/05/30 02:23:53;;;;;;;10.60;2.13;;;;;;;11.85;57.33;99447.31;5054126;28;20056;-62
2022/05/30 02:26:20;;;;;;;10.15;2.53;;;;;;;11.85;57.33;99449.13;5054083;28;20106;-61
2022/05/30 02:28:48;;;;;;;4.97;1.58;;;;;;;11.82;57.38;99444.88;5054014;28;20049;-62
2022/05/30 02:31:15;;;;;;;6.30;1.52;;;;;;;11.82;57.08;99446.69;5052858;28;20511;-63
2022/05/30 02:36:41;;;;;;;6.97;1.77;;;;;;;11.79;57.54;99446.88;5030686;28;20056;-62
2022/05/30 02:39:11;;;;;;;7.78;1.63;;;;;;;11.76;57.57;99453.19;5053191;28;20052;-63
2022/05/30 02:41:38;;;;;;;7.63;1.90;;;;;;;11.72;57.35;99452.56;5059472;28;20052;-62
2022/05/30 02:44:05;;;;;;;8.48;1.85;;;;;;;11.71;57.41;99457.94;5072352;28;20105;-62
2022/05/30 02:46:32;;;;;;;8.18;2.05;;;;;;;11.67;57.41;99457.28;5073759;28;20048;-63
2022/05/30 02:48:59;;;;;;;5.95;1.83;;;;;;;11.64;57.75;99459.28;5072383;28;20408;-61
2022/05/30 02:51:26;;;;;;;8.02;1.90;;;;;;;11.61;57.59;99460.34;5073377;28;20719;-61
2022/05/30 02:53:55;;;;;;;6.78;1.88;;;;;;;11.57;58.01;99451.81;5073915;28;20083;-61
2022/05/30 02:56:22;;;;;;;8.15;1.83;;;;;;;11.56;58.00;99450.09;5073732;28;20051;-61
2022/05/30 02:58:49;;;;;;;5.03;1.65;;;;;;;11.55;58.08;99450.22;5072329;28;20080;-61
2022/05/30 03:01:16;;;;;;;10.48;1.77;;;;;;;11.55;58.05;99456.31;5073528;28;20064;-63
2022/05/30 03:03:44;;;;;;;5.55;1.60;;;;;;;11.55;58.10;99464.22;5073517;28;20472;-61
2022/05/30 03:06:11;;;;;;;5.93;1.45;;;;;;;11.54;58.13;99462.53;5072142;28;20044;-61
2022/05/30 03:08:38;;;;;;;4.05;1.50;;;;;;;11.54;58.14;99469.59;5073383;28;20591;-61
2022/05/30 03:11:04;;;;;;;5.88;1.77;;;;;;;11.53;58.17;99460.84;5073194;28;20048;-61
2022/05/30 03:13:31;;;;;;;6.60;1.88;;;;;;;11.53;58.51;99470.53;5073260;28;20052;-61
2022/05/30 03:15:58;;;;;;;4.65;1.77;;;;;;;11.52;58.31;99464.44;5071866;28;20048;-61
2022/05/30 03:18:26;;;;;;;2.90;1.38;;;;;;;11.52;58.54;99463.59;5073213;28;20080;-61
2022/05/30 03:20:52;;;;;;;4.95;1.50;;;;;;;11.51;58.45;99462.72;5073117;28;20044;-63
2022/05/30 03:23:19;;;;;;;7.65;1.75;;;;;;;11.53;58.50;99462.63;5073149;28;20051;-61
2022/05/30 03:25:45;;;;;;;5.70;1.77;;;;;;;11.52;58.31;99461.81;5072986;28;20057;-62
2022/05/30 03:28:12;;;;;;;6.47;1.52;;;;;;;11.51;58.49;99460.09;5073188;28;20049;-64
2022/05/30 03:30:39;;;;;;;3.92;1.50;;;;;;;11.53;58.55;99460.00;5072740;28;20045;-62
2022/05/30 03:33:08;;;;;;;3.97;1.60;;;;;;;11.54;59.02;99462.53;5072469;28;20056;-63
2022/05/30 03:35:35;;;;;;;5.35;2.10;;;;;;;11.55;59.18;99461.59;5073046;28;20079;-63
2022/05/30 03:38:04;;;;;;;8.05;2.00;;;;;;;11.59;59.35;99467.53;5072744;28;20060;-61
2022/05/30 03:40:30;;;;;;;6.90;1.80;;;;;;;11.60;59.05;99462.13;5072458;28;20681;-60
2022/05/30 03:42:58;;;;;;;6.15;1.70;;;;;;;11.65;59.03;99458.34;5072651;28;20056;-62
2022/05/30 03:45:25;;;;;;;6.32;1.90;;;;;;;11.68;58.97;99466.03;5071110;28;20048;-60
2022/05/30 03:47:51;;;;;;;6.15;1.65;;;;;;;11.71;58.92;99460.56;5072687;28;20568;-61
2022/05/30 03:50:23;;;;;;;9.07;1.88;;;;;;;11.73;59.04;99461.31;5072312;28;20048;-62
2022/05/30 03:52:56;;;;;;;8.27;1.98;;;;;;;11.76;58.30;99455.84;5072670;28;20060;-61
2022/05/30 03:55:23;;;;;;;9.38;1.98;;;;;;;11.79;59.15;99463.56;5072488;28;20055;-62
2022/05/30 03:57:51;;;;;;;5.55;1.50;;;;;;;11.81;59.03;99461.63;5072575;28;20053;-60
2022/05/30 04:00:21;;;;;;;6.65;1.77;;;;;;;11.83;59.41;99469.44;5072172;28;20095;-64
2022/05/30 04:02:48;;;;;;;3.97;1.63;;;;;;;11.86;58.99;99470.09;5072557;28;20563;-61
2022/05/30 04:05:18;;;;;;;8.45;1.85;;;;;;;11.89;58.74;99468.19;5072159;28;20050;-63
2022/05/30 04:07:45;;;;;;;7.40;1.85;;;;;;;11.91;58.61;99476.84;5071031;28;20044;-61
2022/05/30 04:10:12;;;;;;;5.80;1.50;;;;;;;11.92;58.62;99475.91;5072170;28;20048;-64
2022/05/30 04:12:39;;;;;;;6.07;1.58;;;;;;;11.93;58.53;99469.69;5070812;28;20175;-61
2022/05/30 04:15:18;;;;;;;5.82;1.45;;;;;;;11.93;58.58;99465.25;5054529;28;20063;-62
2022/05/30 04:17:44;;;;;;;5.63;1.55;;;;;;;11.95;58.20;99465.13;5072309;28;20484;-61
2022/05/30 04:20:12;;;;;;;4.97;1.80;;;;;;;11.95;58.65;99470.41;5071977;28;20052;-61
2022/05/30 04:22:38;;;;;;;4.75;1.35;;;;;;;11.95;58.57;99470.41;5070854;28;20055;-60
2022/05/30 04:25:05;;;;;;;5.35;1.60;;;;;;;11.97;58.54;99468.53;5071725;28;20087;-61
2022/05/30 04:27:32;;;;;;;7.38;1.30;;;;;;;11.98;58.46;99467.56;5072409;28;20110;-61
2022/05/30 04:29:59;;;;;;;4.10;1.23;;;;;;;11.99;58.42;99471.91;5072012;28;20094;-62
2022/05/30 04:32:26;;;;;;;6.07;1.88;;;;;;;11.99;58.39;99470.13;5070328;28;20177;-61
2022/05/30 04:34:53;;;;;;;7.15;1.45;;;;;;;12.01;58.55;99469.16;5071577;28;20545;-62
2022/05/30 04:37:19;;;;;;;5.72;1.85;;;;;;;12.01;58.38;99477.94;5071542;28;20053;-63
2022/05/30 04:39:46;;;;;;;5.75;1.70;;;;;;;12.01;58.10;99475.28;5071692;28;20059;-63
2022/05/30 04:42:12;;;;;;;9.48;2.25;;;;;;;12.03;58.20;99478.66;5071609;28;20135;-62
2022/05/30 04:44:45;;;;;;;4.82;2.03;;;;;;;12.03;58.27;99476.00;5070570;28;20067;-61
2022/05/30 04:47:12;;;;;;;6.15;1.33;;;;;;;12.04;58.31;99471.59;5071476;28;20044;-61
2022/05/30 04:49:39;;;;;;;7.32;1.52;;;;;;;12.05;58.44;99471.53;5071292;28;20044;-61
2022/05/30 04:52:06;;;;;;;8.20;1.55;;;;;;;12.08;58.22;99473.13;5070946;28;20048;-62
2022/05/30 04:54:32;;;;;;;7.07;1.85;;;;;;;12.09;58.33;99478.28;5071515;28;20040;-63
2022/05/30 04:56:59;;;;;;;4.50;1.40;;;;;;;12.11;58.28;99472.88;5071391;28;20055;-62
2022/05/30 04:59:26;;;;;;;4.28;1.40;;;;;;;12.14;58.45;99477.13;5071209;28;20766;-61
2022/05/30 05:01:54;;;;;;;5.68;1.58;;;;;;;12.16;58.52;99483.13;5071144;28;20060;-61
2022/05/30 05:04:21;;;;;;;9.77;1.75;;;;;;;12.20;58.34;99487.25;5069740;28;20129;-63
2022/05/30 05:06:49;;;;;;;9.13;1.63;;;;;;;12.21;58.32;99481.88;5070997;28;20408;-61
2022/05/30 05:09:15;;;;;;;4.55;1.38;;;;;;;12.26;58.31;99494.75;5071025;28;20056;-61
2022/05/30 05:11:44;;;;;;;4.10;1.80;;;;;;;12.28;58.18;99484.94;5069616;28;20056;-64
2022/05/30 05:14:12;;;;;;;5.60;1.55;;;;;;;12.32;58.14;99488.19;5069664;28;20466;-64
2022/05/30 05:16:39;;;;;;;4.68;1.70;;;;;;;12.34;57.88;99486.31;5070981;28;20099;-63
2022/05/30 05:19:06;;;;;;;9.20;1.77;;;;;;;12.35;57.91;99495.91;5070708;28;20048;-65
2022/05/30 05:21:36;;;;;;;3.75;1.50;;;;;;;12.38;58.33;99496.53;5070837;28;20115;-63
2022/05/30 05:24:05;;;;;;;6.80;1.75;;;;;;;12.42;58.38;99498.97;5069634;28;20098;-61
2022/05/30 05:26:31;;;;;;;3.05;1.13;;;;;;;12.45;58.18;99496.13;5069469;28;20670;-61
2022/05/30 05:28:58;;;;;;;1.92;1.17;;;;;;;12.48;57.95;99496.75;5070708;28;20110;-62
2022/05/30 05:31:34;;;;;;;3.42;1.13;;;;;;;12.52;58.08;99500.00;5069113;28;20048;-63
2022/05/30 05:34:05;;;;;;;3.88;1.30;;;;;;;12.57;57.94;99502.34;5070826;28;20114;-64
2022/05/30 05:36:35;;;;;;;8.32;1.50;;;;;;;12.61;57.85;99506.47;5070537;28;20055;-62
2022/05/30 05:39:02;;;;;;;5.45;1.50;;;;;;;12.64;57.90;99509.72;5069395;28;20097;-63
2022/05/30 05:41:29;;;;;;;5.45;1.23;;;;;;;12.70;57.73;99505.81;5068980;28;20071;-64
2022/05/30 05:43:56;;;;;;;3.97;1.52;;;;;;;12.74;57.92;99509.09;5068962;28;20497;-61
2022/05/30 05:46:26;;;;;;;6.25;1.30;;;;;;;12.79;57.75;99520.19;5070289;28;20045;-61
2022/05/30 05:48:55;;;;;;;5.03;1.17;;;;;;;12.84;57.85;99519.84;5070877;28;20044;-61
2022/05/30 05:51:22;;;;;;;3.83;1.23;;;;;;;12.88;57.84;99516.91;5069281;28;20558;-61
2022/05/30 05:53:49;;;;;;;5.97;1.23;;;;;;;12.94;57.59;99520.91;5070531;28;20056;-61
2022/05/30 05:56:18;;;;;;;10.40;1.70;;;;;;;12.98;57.40;99513.59;5068935;28;20057;-64
2022/05/30 05:58:46;;;;;;;3.90;1.52;;;;;;;13.03;57.27;99507.03;5069100;28;20087;-63
2022/05/30 06:01:17;;;;;;;4.75;1.40;;;;;;;13.07;57.45;99505.00;5069116;28;20056;-61
2022/05/30 06:03:44;;;;;;;5.57;1.25;;;;;;;13.14;57.14;99510.69;5069107;28;20742;-61
2022/05/30 06:06:11;;;;;;;4.57;1.52;;;;;;;13.18;57.05;99506.03;5068953;28;20071;-61
2022/05/30 06:08:38;;;;;;;4.68;1.30;;;;;;;13.22;56.85;99502.22;5070228;28;20040;-63
2022/05/30 06:11:11;;;;;;;5.75;1.75;;;;;;;13.27;57.24;99505.38;5070181;28;20519;-61
2022/05/30 06:13:41;;;;;;;3.50;1.20;;;;;;;13.33;57.63;99506.72;5068905;28;20045;-62
2022/05/30 06:16:11;;;;;;;3.20;1.17;;;;;;;13.38;56.83;99505.44;5070530;28;20050;-61
2022/05/30 06:18:37;;;;;;;4.53;1.20;;;;;;;13.45;56.58;99507.66;5068857;28;20507;-62
2022/05/30 06:21:05;;;;;;;5.55;1.77;;;;;;;13.50;56.49;99505.53;5069957;28;20048;-63
2022/05/30 06:23:32;;;;;;;4.47;1.30;;;;;;;13.53;56.38;99500.03;5068998;28;20056;-62
2022/05/30 06:26:03;;;;;;;5.55;1.10;;;;;;;13.58;56.72;99511.09;5069871;28;20049;-64
2022/05/30 06:28:31;;;;;;;7.85;1.67;;;;;;;13.63;56.53;99505.47;5069140;28;20059;-62
2022/05/30 06:30:57;;;;;;;4.03;1.35;;;;;;;13.68;56.46;99504.16;5068655;28;20079;-62
2022/05/30 06:33:24;;;;;;;2.65;1.17;;;;;;;13.75;56.28;99514.31;5070051;28;20511;-61
2022/05/30 06:35:50;;;;;;;4.43;1.70;;;;;;;13.81;55.87;99519.13;5070033;28;20048;-62
2022/05/30 06:38:17;;;;;;;3.97;1.60;;;;;;;13.86;55.88;99526.72;5069577;28;20098;-63
2022/05/30 06:40:47;;;;;;;7.10;1.20;;;;;;;13.90;56.20;99523.72;5069917;28;20063;-62
2022/05/30 06:43:14;;;;;;;4.43;1.50;;;;;;;13.95;55.88;99523.41;5070076;28;20045;-61
2022/05/30 06:45:46;;;;;;;6.25;1.35;;;;;;;13.98;55.38;99522.31;5069792;28;20395;-63
2022/05/30 06:48:14;;;;;;;4.13;1.48;;;;;;;14.05;55.82;99532.31;5068673;28;20055;-61
2022/05/30 06:50:41;;;;;;;6.38;1.10;;;;;;;14.10;55.56;99528.47;5068349;28;20044;-62
2022/05/30 06:53:08;;;;;;;5.80;1.23;;;;;;;14.13;55.66;99531.72;5069656;28;20048;-62
2022/05/30 06:55:35;;;;;;;2.90;1.02;;;;;;;14.17;55.13;99535.84;5069683;28;20048;-61
2022/05/30 06:58:13;;;;;;;7.22;1.20;;;;;;;14.22;54.90;99532.84;5069688;28;20048;-62
2022/05/30 07:00:42;;;;;;;5.85;1.27;;;;;;;14.26;54.82;99533.44;5069489;28;20048;-62
2022/05/30 07:03:08;;;;;;;6.35;1.20;;;;;;;14.29;54.61;99527.94;5068276;28;20113;-64
2022/05/30 07:05:35;;;;;;;5.20;1.60;;;;;;;14.32;54.29;99530.34;5069377;28;20044;-63
2022/05/30 07:08:02;;;;;;;5.20;0.98;;;;;;;14.35;54.12;99532.75;5070499;28;20106;-61
2022/05/30 07:10:30;;;;;;;3.83;1.10;;;;;;;14.34;53.90;99531.06;5072096;28;20056;-60
2022/05/30 07:12:58;;;;;;;6.40;1.00;;;;;;;14.37;54.00;99528.19;5072173;28;20060;-61
2022/05/30 07:15:25;;;;;;;4.30;1.23;;;;;;;14.37;53.92;99530.84;5072025;28;20443;-62
2022/05/30 07:17:53;;;;;;;3.42;1.05;;;;;;;14.42;53.67;99531.31;5071750;28;20049;-61
2022/05/30 07:20:20;;;;;;;3.78;1.20;;;;;;;14.46;53.70;99540.72;5072951;28;20048;-64
2022/05/30 07:22:46;;;;;;;3.55;0.90;;;;;;;14.50;53.46;99538.66;5073260;28;20060;-62
2022/05/30 07:25:13;;;;;;;3.67;1.40;;;;;;;14.55;53.63;99539.16;5072927;28;20051;-61
2022/05/30 07:27:39;;;;;;;2.22;1.10;;;;;;;14.60;53.43;99536.16;5073075;28;20052;-64
2022/05/30 07:30:07;;;;;;;2.63;0.80;;;;;;;14.64;53.47;99539.41;5072936;28;20048;-64
2022/05/30 07:32:33;;;;;;;3.35;1.00;;;;;;;14.70;52.92;99544.22;5072811;28;20056;-61
2022/05/30 07:35:01;;;;;;;3.45;0.77;;;;;;;14.73;53.04;99542.19;5073146;28;20044;-62
2022/05/30 07:37:27;;;;;;;4.18;1.05;;;;;;;14.76;52.10;99541.13;5071543;28;20056;-61
2022/05/30 07:39:54;;;;;;;2.55;0.70;;;;;;;14.79;52.06;99547.97;5072845;28;20451;-63
2022/05/30 07:42:21;;;;;;;2.00;0.80;;;;;;;14.78;51.98;99549.81;5072685;28;20130;-61
2022/05/30 07:44:47;;;;;;;7.10;1.17;;;;;;;14.80;51.98;99542.56;5072711;28;20114;-62
2022/05/30 07:47:17;;;;;;;3.47;0.98;;;;;;;14.83;52.30;99545.00;5072576;28;20056;-60
2022/05/30 07:49:44;;;;;;;2.22;0.70;;;;;;;14.88;51.98;99546.44;5071296;28;20489;-61
2022/05/30 07:52:10;;;;;;;2.58;0.90;;;;;;;14.93;52.33;99545.13;5072353;28;20048;-62
2022/05/30 07:54:37;;;;;;;2.08;0.70;;;;;;;15.02;52.52;99543.53;5072650;28;20052;-62
2022/05/30 07:57:06;;;;;;;3.08;0.70;;;;;;;15.09;51.33;99544.75;5072497;28;20059;-64
2022/05/30 07:59:35;;;;;;;4.53;1.27;;;;;;;15.18;51.78;99545.78;5072302;28;20055;-61
2022/05/30 08:02:03;;;;;;;3.08;1.00;;;;;;;15.27;52.03;99538.06;5071118;28;20052;-61
2022/05/30 08:04:30;;;;;;;6.60;1.00;;;;;;;15.34;51.66;99541.94;5071183;28;20048;-61
2022/05/30 08:06:57;;;;;;;3.83;1.23;;;;;;;15.40;51.55;99536.13;5072034;28;20594;-62
2022/05/30 08:09:23;;;;;;;3.63;1.13;;;;;;;15.49;51.46;99534.53;5072275;28;20056;-61
2022/05/30 08:11:50;;;;;;;2.20;1.00;;;;;;;15.57;51.16;99540.06;5072059;28;20098;-61
2022/05/30 08:14:17;;;;;;;1.85;0.70;;;;;;;15.68;51.21;99544.50;5072376;28;20080;-63
2022/05/30 08:16:44;;;;;;;2.53;0.75;;;;;;;15.76;51.04;99541.19;5072364;28;20075;-61
2022/05/30 08:19:16;;;;;;;3.15;0.80;;;;;;;15.88;51.04;99537.53;5070919;28;20044;-63
2022/05/30 08:22:07;;;;;;;4.35;1.20;;;;;;;16.00;50.85;99535.69;5072007;28;20110;-62
2022/05/30 08:24:47;;;;;;;3.53;0.93;;;;;;;16.12;50.08;99540.94;5070832;28;20480;-61
2022/05/30 08:27:15;;;;;;;1.88;1.10;;;;;;;16.26;50.81;99542.44;5070774;28;20098;-62
2022/05/30 08:29:44;;;;;;;3.33;1.10;;;;;;;16.37;50.62;99544.19;5070551;28;20041;-61
2022/05/30 08:32:12;;;;;;;4.53;0.90;;;;;;;16.46;49.55;99546.06;5071641;28;20045;-61
2022/05/30 08:34:40;;;;;;;4.68;0.80;;;;;;;16.48;49.26;99544.09;5071736;28;20476;-62
2022/05/30 08:37:08;;;;;;;2.47;0.85;;;;;;;16.45;48.48;99549.66;5071476;28;20064;-64
2022/05/30 08:42:29;;;;;;;1.85;0.80;;;;;;;16.33;48.05;99543.59;5069622;28;20047;-62
2022/05/30 08:44:56;;;;;;;2.60;0.65;;;;;;;16.28;47.92;99546.66;5069963;28;20048;-62
2022/05/30 08:47:41;;;;;;;3.03;0.88;;;;;;;16.20;47.98;99545.59;5057974;28;20045;-61
2022/05/30 08:50:21;;;;;;;2.70;0.70;;;;;;;16.21;47.76;99541.97;5051415;28;20053;-62
2022/05/30 08:53:02;;;;;;;3.00;0.70;;;;;;;16.22;49.00;99549.00;5051499;28;20064;-64
2022/05/30 08:55:51;;;;;;;2.03;0.60;;;;;;;16.25;48.67;99543.41;5050075;28;20057;-63
2022/05/30 08:58:33;;;;;;;1.88;0.60;;;;;;;16.34;48.86;99547.09;5051434;28;20057;-63
2022/05/30 09:01:10;;;;;;;3.50;0.82;;;;;;;16.47;48.92;99554.84;5049939;28;20064;-62
2022/05/30 09:04:06;;;;;;;3.72;0.63;;;;;;;16.51;47.46;99554.47;5051275;28;20052;-62
2022/05/30 09:06:38;;;;;;;3.20;0.70;;;;;;;16.60;48.23;99557.31;5051325;28;20088;-61
2022/05/30 09:09:17;;;;;;;1.33;0.70;;;;;;;16.62;48.07;99552.72;5050028;28;20064;-63
2022/05/30 09:11:49;;;;;;;3.00;0.50;;;;;;;16.71;47.92;99549.25;5049708;28;20049;-61
2022/05/30 09:14:29;;;;;;;1.83;0.70;;;;;;;16.75;47.08;99557.81;5049910;28;20057;-62
2022/05/30 09:16:59;;;;;;;1.42;0.60;;;;;;;16.84;47.02;99561.47;5051294;28;20406;-62
2022/05/30 09:19:27;;;;;;;2.15;0.50;;;;;;;16.91;47.31;99567.97;5051024;28;20103;-62
2022/05/30 09:22:01;;;;;;;2.60;0.80;;;;;;;16.96;46.58;99563.06;5049379;28;20052;-64
2022/05/30 09:24:31;;;;;;;1.92;0.63;;;;;;;17.02;46.28;99559.91;5050842;28;20052;-61
2022/05/30 09:27:01;;;;;;;2.30;0.50;;;;;;;17.09;46.46;99554.06;5049267;28;20053;-64
2022/05/30 09:29:34;;;;;;;1.63;0.60;;;;;;;17.15;45.85;99550.84;5049458;28;20049;-62
2022/05/30 09:32:09;;;;;;;2.13;0.63;;;;;;;17.19;45.63;99554.91;5049244;28;20049;-63
2022/05/30 09:34:46;;;;;;;1.17;0.70;;;;;;;17.24;45.79;99554.53;5049537;28;20068;-62
2022/05/30 09:37:35;;;;;;;1.85;0.70;;;;;;;17.26;46.24;99547.25;5049385;28;20049;-63
2022/05/30 09:40:02;;;;;;;1.90;0.70;;;;;;;17.30;46.05;99554.81;5050863;28;20059;-62
2022/05/30 09:42:30;;;;;;;2.28;0.68;;;;;;;17.29;46.17;99561.13;5050506;28;20373;-62
2022/05/30 09:45:12;;;;;;;4.05;0.85;;;;;;;17.21;45.21;99554.78;5050951;28;20107;-61
2022/05/30 09:47:57;;;;;;;1.98;0.88;;;;;;;17.16;45.66;99555.22;5049258;28;20049;-64
2022/05/30 09:50:24;;;;;;;3.33;0.55;;;;;;;17.19;46.15;99562.91;5050530;28;20049;-62
2022/05/30 09:52:51;;;;;;;2.22;0.60;;;;;;;17.16;46.42;99555.22;5050292;28;20051;-63
2022/05/30 09:55:31;;;;;;;2.88;0.95;;;;;;;17.10;46.17;99564.56;5050323;28;20122;-63
2022/05/30 09:58:02;;;;;;;4.30;1.13;;;;;;;17.13;46.48;99564.31;5049335;28;20049;-61
2022/05/30 10:00:47;;;;;;;1.92;0.70;;;;;;;17.15;46.53;99564.16;5049970;28;20060;-63
2022/05/30 10:03:35;;;;;;;4.55;0.93;;;;;;;17.11;45.80;99565.38;5049186;28;20059;-62
2022/05/30 10:06:17;;;;;;;3.03;1.00;;;;;;;17.14;45.68;99567.78;5050243;28;20501;-62
2022/05/30 10:08:46;;;;;;;4.32;1.08;;;;;;;17.21;46.27;99565.44;5048910;28;20475;-62
2022/05/30 10:11:32;;;;;;;2.83;1.23;;;;;;;17.21;46.34;99568.94;5050170;28;20049;-61
2022/05/30 10:13:59;;;;;;;2.65;0.65;;;;;;;17.31;46.84;99566.31;5049226;28;20088;-63
2022/05/30 10:16:32;;;;;;;2.75;0.60;;;;;;;17.35;45.82;99581.03;5050269;28;20056;-62
2022/05/30 10:19:22;;;;;;;2.00;0.77;;;;;;;17.41;45.00;99571.63;5049006;28;20052;-64
2022/05/30 10:28:30;;;;;;;3.13;0.90;;;;;;;17.80;44.42;99571.69;5050297;28;20049;-64
2022/05/30 10:31:04;;;;;;;1.23;0.70;;;;;;;17.92;44.71;99579.56;5050253;28;20053;-61
2022/05/30 10:33:58;;;;;;;4.07;1.20;;;;;;;18.03;44.93;99581.25;5048609;28;20068;-62
2022/05/30 10:36:31;;;;;;;2.65;0.80;;;;;;;18.21;43.51;99578.75;5050158;28;20512;-62
2022/05/30 10:39:35;;;;;;;2.95;0.68;;;;;;;18.35;43.52;99572.97;5050123;28;20052;-66
2022/05/30 10:42:09;;;;;;;23.02;6.63;;;;;;;18.55;45.01;99572.94;5016778;28;20060;-61
2022/05/30 10:44:42;;;;;;;2.05;0.77;;;;;;;18.72;43.99;99571.34;5053911;28;20057;-63
2022/05/30 10:47:17;;;;;;;2.17;0.80;;;;;;;18.90;44.81;99570.56;5053918;28;20041;-62
2022/05/30 10:50:01;;;;;;;1.58;0.63;;;;;;;19.04;43.89;99566.59;5054005;28;20444;-63
2022/05/30 10:52:40;;;;;;;1.20;0.63;;;;;;;19.20;42.44;99573.13;5053605;28;20053;-64
2022/05/30 10:55:34;;;;;;;2.90;0.80;;;;;;;19.24;43.69;99570.03;5052639;28;20071;-62
2022/05/30 10:58:23;;;;;;;1.90;0.60;;;;;;;19.28;43.17;99573.22;5046000;28;20061;-63
2022/05/30 11:00:55;;;;;;;1.38;0.50;;;;;;;19.32;42.53;99582.63;5052004;28;20481;-62
2022/05/30 11:03:29;;;;;;;0.85;0.50;;;;;;;19.27;41.50;99577.75;5052314;28;20052;-63
2022/05/30 11:06:03;;;;;;;2.25;0.73;;;;;;;19.21;41.87;99575.66;5053553;28;20049;-61
2022/05/30 11:08:33;;;;;;;2.35;0.82;;;;;;;19.14;42.05;99582.59;5052483;28;20402;-62
2022/05/30 11:11:07;;;;;;;1.23;0.63;;;;;;;19.03;40.94;99578.25;5051871;28;20045;-62
2022/05/30 11:13:50;;;;;;;3.05;1.00;;;;;;;18.94;42.09;99574.63;5053610;28;20060;-62
2022/05/30 11:16:28;;;;;;;1.42;0.60;;;;;;;18.85;41.66;99587.03;5053820;28;20056;-62
2022/05/30 11:19:11;;;;;;;1.83;0.77;;;;;;;18.81;41.98;99585.63;5053357;28;20049;-62
2022/05/30 11:21:59;;;;;;;2.08;0.70;;;;;;;18.71;42.77;99590.16;5052872;28;20059;-63
2022/05/30 11:24:25;;;;;;;2.10;0.60;;;;;;;18.72;42.58;99592.66;5053026;28;20477;-63
2022/05/30 11:27:34;;;;;;;3.05;0.70;;;;;;;18.66;43.02;99595.06;5051848;28;20045;-61
2022/05/30 11:30:13;;;;;;;2.33;0.70;;;;;;;18.72;42.74;99591.81;5051641;28;20048;-63
2022/05/30 11:33:00;;;;;;;2.42;0.85;;;;;;;18.81;42.77;99595.44;5052846;28;20060;-62
2022/05/30 11:35:35;;;;;;;1.35;0.75;;;;;;;18.91;43.79;99600.75;5052995;28;20512;-61
2022/05/30 11:38:20;;;;;;;1.02;0.52;;;;;;;19.08;43.95;99593.84;5051803;28;20447;-61
2022/05/30 11:40:57;;;;;;;1.67;0.55;;;;;;;19.31;43.87;99594.28;5052649;28;20282;-62
2022/05/30 11:44:07;;;;;;;2.47;0.73;;;;;;;19.55;42.87;99594.72;5052840;28;20056;-64
2022/05/30 11:46:52;;;;;;;2.58;0.65;;;;;;;19.80;41.13;99595.81;5032870;28;20057;-62
2022/05/30 11:49:37;;;;;;;0.65;0.40;;;;;;;19.97;41.12;99586.13;5051767;28;20441;-63
2022/05/30 11:52:18;;;;;;;2.05;0.65;;;;;;;20.10;40.81;99588.44;5052699;28;20065;-62
2022/05/30 11:55:06;;;;;;;1.65;0.70;;;;;;;20.18;40.77;99583.16;5052061;28;20455;-62
2022/05/30 11:57:35;;;;;;;1.35;0.50;;;;;;;20.33;40.67;99574.56;5052950;28;20056;-63
2022/05/30 12:00:27;;;;;;;1.52;0.70;;;;;;;20.47;40.99;99585.69;5052621;28;20057;-64
2022/05/30 12:02:54;;;;;;;1.05;0.50;;;;;;;20.73;41.57;99582.19;5052373;28;20049;-61
2022/05/30 12:05:20;;;;;;;0.95;0.52;;;;;;;21.00;41.80;99580.38;5052343;28;20065;-62
2022/05/30 12:08:15;;;;;;;1.52;0.50;;;;;;;21.26;41.27;99588.31;5052537;28;20067;-63
2022/05/30 12:11:27;;;;;;;2.08;0.73;;;;;;;21.53;40.40;99591.75;5052338;28;20398;-61
2022/05/30 12:14:27;;;;;;;1.05;0.60;;;;;;;21.69;39.49;99587.44;5052236;28;20504;-64